Historyczne dane pomiarowe

Dodano dane terminowe – wersja testowa.

Dane z okresu 1951-2019

Wersja bazy: 1.34 [2019-03-16, lista zmian], aktualizacja planowana na 2019-04-15

Dane meteo z obszaru Polski uzyskane na podstawie danych udostępnionych przez Instytut Meteorologii i Gospodarki Wodnej – Państwowy Instytut Badawczy.

 

Wybierz Datę:    

       

TemperaturaWilgotnośćWiatrCiśnienieOpadyŚniegCzas trwania zjawisk
 Stacja t tx tn tng RH VA  wxwx mslp ppp RRR   cm mm wxwxwxwxwxwxwx
1987-07-08 23.8 31.5 13.2 11.1 51.3- 0.7 2.0---- 0.0------------
1987-07-07 19.3 26.9 8.0 6.9 68.8- 0.0 1.3---- 0.0------------
1987-07-06 17.1 23.0 9.0 8.5 77.8- 0.0 1.3---- 0.0------------
1987-07-05 16.7 20.8 15.2 13.7 85.0- 5.3 1.3---- 1.0------------
1987-07-04 20.9 24.8 15.7 14.3 73.5- 3.7 2.0---- 0.0------------
1987-07-03 19.8 23.0 16.8 14.4 81.8- 7.3 1.7---- 0.0------------
1987-07-02 20.0 30.0 17.0 15.7 93.3- 8.0 1.0---- 2.4------------
1987-07-01 27.8 33.0 17.9 16.4 68.3- 0.0 1.0---- 0.0------------
1987-06-30 23.7 28.6 14.0 12.9 77.0- 0.0 1.0---- 0.0------------
1987-06-29 21.3 26.1 16.9 15.5 79.3- 0.3 1.3---- 0.0------------
1987-06-28 19.3 25.0 13.0 11.5 77.8- 1.3 1.0---- 0.0------------
1987-06-27 17.9 22.0 15.7 14.3 84.5- 8.0 1.0---- 0.0------------
1987-06-26 17.0 25.5 8.0 5.7 77.0- 2.7 1.7---- 13.2------------
1987-06-25 14.4 19.0 13.0 12.4 78.0- 5.3 2.0---- 1.2------------
1987-06-24 17.0 21.8 14.0 12.9 67.5- 5.3 2.7---- 1.6------------
1987-06-23 15.9 21.0 12.4 11.9 76.5- 5.7 2.0---- 0.0------------
1987-06-22 14.8 21.8 13.5 12.1 88.3- 7.0 1.7---- 0.8------------
1987-06-21 16.4 23.0 9.0 7.7 79.3- 2.7 2.3---- 5.8------------
1987-06-20 14.5 20.0 8.7 7.5 72.3- 4.7 1.3---- 0.0------------
1987-06-19 13.2 18.0 8.0 6.3 67.0- 0.3 1.7---- 0.0------------
1987-06-18 10.7 15.0 7.0 5.4 75.5- 4.3 2.7---- 1.2------------
1987-06-17 11.1 14.0 9.0 8.1 76.5- 3.0 1.7---- 2.2------------
1987-06-16 13.6 23.0 10.0 10.1 83.8- 7.3 1.3---- 13.2------------
1987-06-15 20.3 27.1 14.0 12.5 85.0- 2.3 1.7---- 25.0------------
1987-06-14 22.1 26.1 15.9 11.7 76.0- 5.3 1.3---- 2.6------------
1987-06-13 22.1 26.3 14.8 12.3 63.5- 2.0 1.3---- 0.0------------
1987-06-12 18.3 25.7 9.6 7.1 71.8- 1.7 1.0---- 0.0------------
1987-06-11 17.0 22.0 10.0 7.5 75.3- 0.0 1.0---- 0.0------------
1987-06-10 16.2 19.2 14.1 13.4 82.5- 6.0 2.3---- 0.0------------
1987-06-09 14.7 23.0 11.0 9.4 83.8- 5.3 1.3---- 5.2------------
1987-06-08 21.1 26.5 15.5 13.4 67.3- 5.0 1.3---- 0.4------------
1987-06-07 19.8 25.9 13.8 10.1 60.8- 0.3 1.7---- 0.0------------
1987-06-06 15.7 20.0 12.2 10.1 66.8- 4.0 1.7---- 2.0------------
1987-06-05 13.2 15.1 11.2 10.3 90.0- 8.0 1.3---- 30.2------------
1987-06-04 15.2 21.0 12.0 10.4 82.3- 6.7 1.3---- 8.5------------
1987-06-03 12.6 14.1 9.0 6.3 78.8- 7.3 1.0---- 2.7------------
1987-06-02 13.2 17.2 9.0 6.4 71.0- 6.7 1.7---- 10.8------------
1987-06-01 9.4 15.0 5.0 2.5 73.3- 4.0 1.3---- 0.0------------
1987-05-31 8.9 11.0 5.8 3.7 81.8- 6.7 1.7---- 0.0------------
1987-05-30 7.3 13.1 4.4 2.3 90.3- 8.0 1.0---- 4.6------------
1987-05-29 12.5 16.0 8.0 5.4 68.3- 0.7 1.7---- 0.0------------
1987-05-28 13.8 15.8 10.5 9.4 78.3- 8.0 1.3---- 5.4------------
1987-05-27 13.9 21.0 5.0 2.3 63.8- 0.0 1.0---- 0.6------------
1987-05-26 12.7 17.2 8.2 5.9 62.3- 1.0 1.0---- 0.0------------
1987-05-25 12.9 16.0 7.0 4.5 67.0- 2.3 2.3---- 0.0------------
1987-05-24 11.2 14.3 8.8 7.5 74.0- 5.7 2.0---- 0.0------------
1987-05-23 10.7 12.1 7.9 6.9 84.5- 8.0 1.7---- 0.0------------
1987-05-22 7.5 7.9 7.0 5.9 88.5- 8.0 2.0---- 15.4------------
1987-05-21 7.4 9.5 6.2 5.7 80.8- 8.0 1.3---- 27.2------------
1987-05-20 11.0 16.0 9.5 6.5 86.8- 8.0 1.7---- 23.2------------
1987-05-19 15.6 18.0 9.0 7.3 71.5- 3.7 1.3---- 0.0------------
1987-05-18 12.1 17.8 8.0 4.1 74.3- 7.0 1.7---- 3.5------------
1987-05-17 11.1 16.0 6.0 4.9 58.5- 1.0 1.3---- 0.8------------
1987-05-16 10.3 13.7 7.6 3.1 77.0- 8.0 1.3---- 10.2------------
1987-05-15 11.0 16.8 4.0 -0.3 47.8- 1.3 1.3---- 0.6------------
1987-05-14 6.0 15.1 4.4 3.9 81.0- 6.7 1.7---- 20.2------------
1987-05-13 15.6 17.2 14.0 8.1 63.0- 6.3 1.0---- 9.6------------
1987-05-12 13.2 18.5 4.6 1.1 61.3- 3.0 2.0---- 0.0------------
1987-05-11 10.8 22.2 7.8 6.4 71.3- 6.0 2.0---- 0.0------------
1987-05-10 16.3 23.0 10.4 3.5 45.5- 2.7 2.3---- 0.0------------
459.9 ms

 

Źródłem pochodzenia danych jest Instytut Meteorologii i Gospodarki Wodnej – Państwowy Instytut Badawczy. Dane Instytutu Meteorologii i Gospodarki Wodnej – Państwowego Instytutu Badawczego zostały przetworzone.

Dane źródłowe można odnaleźć na stronie https://dane.imgw.pl